Flight Track Log - Related Links

Times and Time Zones

All times are in EDT time to prevent confusion due to time zone crossing. See the SKW6446 flight status page for this flight to view local times or setup timezone preferences in your user account.

Time Position Orientation Groundspeed Altitude Reporting Facility
EDT Latitude Longitude Course Direction KTS MPH feet Rate Location/Type
Thu 08:23:00 PM 34.1486 -119.0986 320° Northwest  Level FlightAware Approximate
Thu 08:24:00 PM 34.1918 -119.1939 298° West  Level FlightAware Approximate
Thu 08:25:00 PM 34.2415 -119.2830 301° West  Level FlightAware Approximate
Thu 08:26:00 PM 34.2881 -119.3762 301° West  Level FlightAware Approximate
Thu 08:27:00 PM 34.3347 -119.4694 301° West  Level FlightAware Approximate
Thu 08:28:00 PM 34.3881 -119.5570 309° West  Level FlightAware Approximate
Thu 08:29:00 PM 34.4446 -119.6419 309° West  Level FlightAware Approximate
Thu 08:30:00 PM 34.4851 -119.7369 301° West  Level FlightAware Approximate
Thu 08:31:00 PM 34.5318 -119.8303 301° West  Level FlightAware Approximate
Thu 08:32:00 PM 34.5786 -119.9237 301° West  Level FlightAware Approximate
Thu 08:33:00 PM 34.6253 -120.0172 301° West  Level FlightAware Approximate
Thu 08:34:00 PM 34.6721 -120.1107 301° West  Level FlightAware Approximate
Thu 08:35:00 PM 34.7188 -120.2043 301° West  Level FlightAware Approximate
Thu 08:36:00 PM 34.7614 -120.2837 309° West  Level FlightAware Approximate
Thu 08:37:00 PM 34.8205 -120.3663 312° West  Level FlightAware Approximate
Thu 08:38:00 PM 34.8813 -120.4473 312° West  Level FlightAware Approximate
Thu 08:39:00 PM 34.8833 -120.4500 312° West  Level FlightAware Approximate
Thu 08:40:00 PM 34.8999 -120.4581 312° West  Level Estimated
Thu 08:41:00 PM 34.8999 -120.4581 312° West  Level Estimated
Thu 08:42:00 PM 34.8999 -120.4581 312° West  Level Estimated
Thu 08:43:00 PM 34.8999 -120.4581 312° West  Level Estimated
Thu 08:44:00 PM 34.8999 -120.4581 312° West  Level Estimated
Thu 08:45:00 PM 34.8999 -120.4581 312° West  Level Estimated
Thu 08:46:00 PM 34.8999 -120.4581 312° West  Level Estimated
Thu 08:47:00 PM 34.8999 -120.4581 312° West  Level Estimated
Thu 08:48:00 PM 34.8999 -120.4581 312° West  Level Estimated
Thu 08:49:00 PM 34.8999 -120.4581 312° West  Level Estimated
Thu 08:50:00 PM 34.8999 -120.4581 312° West  Level Estimated
Thu 08:51:00 PM 34.8999 -120.4581 312° West  Level Estimated

Login

Don't have an account? Register now (free) for customized features, flight alerts, and more!